Ben Arnold, Texas
Current Conditions -  °F | °C
As of 4:15 AM on Thursday 18 Dec 2014 (Local Time) from KT35 Reporting Station
Haze Haze  
Wind Chill: 46°   Ceiling: 300
Heat Index: 48°   Visibility: 1.7mi
Dew Point: 47°   Wind: 5mph
Humidity: 98%   Direction: 20°NNE
Pressure: 30.1"   Gusts: NA
Location:  30.9882°N, 97.103°W
Report Text: KT35 181015Z AUTO 02004KT 1 3/4SM BR OVC003 09/09 A3010 RMK AO2 T00880085
Loading
Personal Weather Stations






























Interactive Weather Map New forecast layout! Learn more

10-Day Weather Forecast

Advertisements
Track Severe Weather on mobile